Time;durP1;ratioP1;P1;durP2;ratioP2;P2;SDS_P1;SDS_P2;PMS_P1;PMS_P2;Temp;Humidity;BMP_temperature;BMP_pressure;BME280_temperature;BME280_humidity;BME280_pressure;Samples;Min_cycle;Max_cycle;Signal;HPM_P1;HPM_P2
2022/03/31 00:00:47;;;;;;;5.90;1.45;;;2.80;99.90;;;;;;4877912;29;20422;-86
2022/03/31 00:03:18;;;;;;;4.47;1.50;;;2.90;99.90;;;;;;4861871;29;20057;-87
2022/03/31 00:05:45;;;;;;;5.95;1.33;;;2.80;99.90;;;;;;4897079;29;20151;-87
2022/03/31 00:08:16;;;;;;;3.45;1.50;;;2.80;99.90;;;;;;4897038;29;20060;-86
2022/03/31 00:10:47;;;;;;;6.88;1.67;;;2.80;99.90;;;;;;4897006;29;20068;-87
2022/03/31 00:13:18;;;;;;;4.15;1.15;;;2.80;99.90;;;;;;4897022;29;20055;-87
2022/03/31 00:15:45;;;;;;;5.35;1.50;;;2.80;99.90;;;;;;4894770;29;20051;-87
2022/03/31 00:18:12;;;;;;;5.50;1.30;;;3.20;99.90;;;;;;4880142;29;20407;-86
2022/03/31 00:20:37;;;;;;;3.95;1.48;;;2.80;99.90;;;;;;4896777;29;20055;-86
2022/03/31 00:23:05;;;;;;;5.40;1.67;;;2.80;99.90;;;;;;4879969;29;20064;-86
2022/03/31 00:25:31;;;;;;;6.20;1.33;;;2.70;99.90;;;;;;4879034;29;20123;-87
2022/03/31 00:27:57;;;;;;;5.53;1.40;;;2.90;99.90;;;;;;4896416;29;20495;-87
2022/03/31 00:30:24;;;;;;;3.33;1.58;;;2.70;99.90;;;;;;4863762;29;20061;-87
2022/03/31 00:32:50;;;;;;;4.65;1.40;;;2.70;99.90;;;;;;4896843;29;20055;-87
2022/03/31 00:35:16;;;;;;;4.60;1.33;;;2.60;99.90;;;;;;4879838;29;20044;-86
2022/03/31 00:37:46;;;;;;;5.30;1.83;;;2.60;99.90;;;;;;4879695;29;20090;-87
2022/03/31 00:40:15;;;;;;;3.92;1.55;;;3.00;99.90;;;;;;4896492;29;20041;-88
2022/03/31 00:43:08;;;;;;;3.70;1.10;;;2.70;99.90;;;;;;4895892;29;20083;-84
2022/03/31 00:45:34;;;;;;;6.47;1.50;;;2.60;99.90;;;;;;4876866;29;20060;-87
2022/03/31 00:48:02;;;;;;;4.35;1.40;;;2.60;99.90;;;;;;4879545;29;20052;-87
2022/03/31 00:50:28;;;;;;;5.13;1.65;;;2.50;99.90;;;;;;4895964;29;20048;-85
2022/03/31 00:52:54;;;;;;;3.38;1.40;;;2.50;99.90;;;;;;4879522;29;20056;-87
2022/03/31 00:55:21;;;;;;;6.68;1.88;;;2.70;99.90;;;;;;4863884;29;20120;-87
2022/03/31 00:57:47;;;;;;;6.35;1.30;;;2.50;99.90;;;;;;4878852;29;20463;-86
2022/03/31 01:00:17;;;;;;;4.97;1.60;;;2.50;99.90;;;;;;4896007;29;20059;-87
2022/03/31 01:02:45;;;;;;;6.03;1.67;;;2.40;99.90;;;;;;4895968;29;20053;-86
2022/03/31 01:05:12;;;;;;;5.03;1.60;;;2.70;99.90;;;;;;4862751;29;20131;-87
2022/03/31 01:07:38;;;;;;;6.07;1.50;;;2.40;99.90;;;;;;4879040;29;20052;-87
2022/03/31 01:10:05;;;;;;;3.45;1.55;;;2.40;99.90;;;;;;4878682;29;20441;-86
2022/03/31 01:12:32;;;;;;;5.40;1.90;;;2.40;99.90;;;;;;4879514;29;20127;-87
2022/03/31 01:15:08;;;;;;;7.10;2.05;;;2.40;99.90;;;;;;4895507;29;20043;-87
2022/03/31 01:17:39;;;;;;;5.10;2.10;;;2.40;99.90;;;;;;4877219;29;20123;-86
2022/03/31 01:20:07;;;;;;;4.15;2.00;;;2.40;99.90;;;;;;4892695;29;20068;-87
2022/03/31 01:22:33;;;;;;;7.75;2.50;;;2.40;99.90;;;;;;4878716;29;20559;-86
2022/03/31 01:25:00;;;;;;;7.28;2.10;;;2.40;99.90;;;;;;4877985;29;20048;-88
2022/03/31 01:27:26;;;;;;;7.25;2.08;;;2.40;99.90;;;;;;4879325;29;20112;-86
2022/03/31 01:29:53;;;;;;;6.53;2.38;;;2.40;99.90;;;;;;4895326;29;20073;-87
2022/03/31 01:32:19;;;;;;;9.93;2.58;;;2.40;99.90;;;;;;4879185;29;20057;-87
2022/03/31 01:34:46;;;;;;;8.40;2.22;;;2.40;99.90;;;;;;4893090;29;20045;-87
2022/03/31 01:37:13;;;;;;;5.95;2.55;;;2.30;99.90;;;;;;4878725;29;20052;-87
2022/03/31 01:39:39;;;;;;;5.07;1.90;;;2.30;99.90;;;;;;4878590;29;20055;-87
2022/03/31 01:42:05;;;;;;;7.57;2.20;;;2.40;99.90;;;;;;4879119;29;20052;-87
2022/03/31 01:44:32;;;;;;;9.73;2.35;;;2.30;99.90;;;;;;4878354;29;20112;-87
2022/03/31 01:46:58;;;;;;;6.30;2.00;;;2.20;99.90;;;;;;4878964;29;20049;-88
2022/03/31 01:49:24;;;;;;;5.03;2.00;;;2.20;99.90;;;;;;4878736;29;20045;-88
2022/03/31 01:51:50;;;;;;;3.22;1.70;;;2.30;99.90;;;;;;4895542;29;20376;-87
2022/03/31 01:54:16;;;;;;;5.57;1.70;;;2.20;99.90;;;;;;4895815;29;20056;-86
2022/03/31 01:56:42;;;;;;;5.63;1.77;;;2.50;99.90;;;;;;4874246;29;20101;-87
2022/03/31 01:59:09;;;;;;;5.85;2.15;;;2.30;99.90;;;;;;4895101;29;20427;-86
2022/03/31 02:01:34;;;;;;;2.92;1.65;;;2.20;99.90;;;;;;4894417;29;20127;-87
2022/03/31 02:04:00;;;;;;;4.22;1.77;;;2.30;99.90;;;;;;4878038;29;20139;-87
2022/03/31 02:06:26;;;;;;;8.07;2.40;;;2.20;99.90;;;;;;4878357;29;20153;-87
2022/03/31 02:08:52;;;;;;;5.75;2.05;;;2.30;99.90;;;;;;4863087;29;20059;-88
2022/03/31 02:11:18;;;;;;;4.38;1.80;;;2.30;99.90;;;;;;4878962;29;20124;-86
2022/03/31 02:13:44;;;;;;;4.25;1.73;;;2.30;99.90;;;;;;4895586;29;20052;-87
2022/03/31 02:16:10;;;;;;;9.63;2.70;;;2.30;99.90;;;;;;4878294;29;20056;-87
2022/03/31 02:18:36;;;;;;;3.95;1.75;;;2.60;99.90;;;;;;4895058;29;20056;-87
2022/03/31 02:21:02;;;;;;;6.35;2.10;;;2.30;99.90;;;;;;4862367;29;20392;-87
2022/03/31 02:23:28;;;;;;;4.88;2.17;;;2.30;99.90;;;;;;4879505;29;20059;-88
2022/03/31 02:25:53;;;;;;;6.70;2.22;;;2.30;99.90;;;;;;4863164;29;20045;-86
2022/03/31 02:28:19;;;;;;;10.27;2.47;;;2.30;99.90;;;;;;4878514;29;20503;-87
2022/03/31 02:30:45;;;;;;;7.07;1.88;;;2.30;99.90;;;;;;4878514;29;20458;-85
2022/03/31 02:33:10;;;;;;;6.80;1.90;;;2.30;99.90;;;;;;4878459;29;20483;-88
2022/03/31 02:35:36;;;;;;;7.35;2.30;;;2.30;99.90;;;;;;4877909;29;20139;-87
2022/03/31 02:38:02;;;;;;;5.50;2.10;;;2.30;99.90;;;;;;4895339;29;20490;-88
2022/03/31 02:40:28;;;;;;;6.32;2.10;;;2.30;99.90;;;;;;4862924;29;20414;-86
2022/03/31 02:42:54;;;;;;;6.75;2.03;;;2.20;99.90;;;;;;4881713;29;20040;-87
2022/03/31 02:45:20;;;;;;;6.72;2.30;;;2.20;99.90;;;;;;4881465;29;20490;-87
2022/03/31 02:47:46;;;;;;;4.25;2.00;;;2.20;99.90;;;;;;4881943;29;20131;-86
2022/03/31 02:50:13;;;;;;;5.38;1.95;;;2.20;99.90;;;;;;4898519;29;20044;-88
2022/03/31 02:55:28;;;;;;;9.23;2.50;;;2.20;99.90;;;;;;4881450;29;20513;-86
2022/03/31 02:57:55;;;;;;;7.32;2.83;;;2.20;99.90;;;;;;4881822;29;20048;-86
2022/03/31 03:00:21;;;;;;;9.52;2.83;;;2.30;99.90;;;;;;4881410;29;20495;-86
2022/03/31 03:02:47;;;;;;;8.38;3.05;;;2.20;99.90;;;;;;4898017;29;20104;-86
2022/03/31 03:05:13;;;;;;;15.93;3.60;;;2.20;99.90;;;;;;4897995;29;20554;-87
2022/03/31 03:07:38;;;;;;;6.32;2.92;;;2.20;99.90;;;;;;4898041;29;20037;-87
2022/03/31 03:10:04;;;;;;;7.20;2.35;;;2.20;99.90;;;;;;4881468;29;20080;-87
2022/03/31 03:12:31;;;;;;;5.93;2.30;;;2.30;99.90;;;;;;4881427;29;20056;-87
2022/03/31 03:14:57;;;;;;;5.10;2.47;;;2.30;99.90;;;;;;4880935;29;20452;-86
2022/03/31 03:17:23;;;;;;;7.68;2.78;;;2.30;99.90;;;;;;4881328;29;20108;-86
2022/03/31 03:19:49;;;;;;;7.40;2.90;;;2.30;99.90;;;;;;4897472;29;20060;-86
2022/03/31 03:22:14;;;;;;;8.57;2.40;;;2.20;99.90;;;;;;4898023;29;20120;-87
2022/03/31 03:24:40;;;;;;;9.50;3.38;;;2.30;99.90;;;;;;4865146;29;20463;-86
2022/03/31 03:27:06;;;;;;;9.43;2.97;;;2.20;99.90;;;;;;4899593;29;20045;-87
2022/03/31 03:29:32;;;;;;;5.32;3.67;;;2.20;99.90;;;;;;4865603;29;20049;-87
2022/03/31 03:31:57;;;;;;;6.63;3.30;;;2.20;99.90;;;;;;4881312;29;20554;-87
2022/03/31 03:34:23;;;;;;;10.43;3.78;;;2.20;99.90;;;;;;4880791;29;20108;-87
2022/03/31 03:36:49;;;;;;;10.07;3.50;;;2.20;99.90;;;;;;4897242;29;20131;-86
2022/03/31 03:39:15;;;;;;;7.85;4.10;;;2.20;99.90;;;;;;4879987;29;20048;-87
2022/03/31 03:41:41;;;;;;;9.38;4.18;;;2.40;99.90;;;;;;4881003;29;20088;-86
2022/03/31 03:44:07;;;;;;;9.88;4.25;;;2.30;99.90;;;;;;4880690;29;20822;-87
2022/03/31 03:46:34;;;;;;;13.35;4.50;;;2.30;99.90;;;;;;4880613;29;20049;-87
2022/03/31 03:49:00;;;;;;;8.25;4.07;;;2.30;99.90;;;;;;4880280;29;20092;-86
2022/03/31 03:51:27;;;;;;;13.25;4.75;;;2.30;99.90;;;;;;4880553;29;20455;-87
2022/03/31 03:53:53;;;;;;;11.52;4.80;;;2.30;99.90;;;;;;4880044;29;20466;-86
2022/03/31 03:56:19;;;;;;;12.77;5.60;;;2.30;99.90;;;;;;4880283;29;20064;-87
2022/03/31 03:58:45;;;;;;;13.88;5.70;;;2.40;99.90;;;;;;4880432;29;20049;-86
2022/03/31 04:01:11;;;;;;;15.70;6.38;;;2.40;99.90;;;;;;4880040;29;20575;-87
2022/03/31 04:03:37;;;;;;;11.40;5.18;;;2.40;99.90;;;;;;4880677;29;20559;-88
2022/03/31 04:06:02;;;;;;;10.45;6.07;;;2.40;99.90;;;;;;4895711;29;20096;-87
2022/03/31 04:08:28;;;;;;;11.07;6.35;;;2.40;99.90;;;;;;4864998;29;20052;-87
2022/03/31 04:10:54;;;;;;;12.30;7.00;;;2.40;99.90;;;;;;4864728;29;20630;-87
2022/03/31 04:13:20;;;;;;;15.93;7.05;;;2.40;99.90;;;;;;4897349;29;20573;-87
2022/03/31 04:15:46;;;;;;;10.18;6.47;;;2.40;99.90;;;;;;4880251;29;20053;-88
2022/03/31 04:18:12;;;;;;;8.32;5.63;;;2.40;99.90;;;;;;4880533;29;20043;-87
2022/03/31 04:20:38;;;;;;;11.60;6.22;;;2.40;99.90;;;;;;4879640;29;20060;-88
2022/03/31 04:23:05;;;;;;;14.18;6.93;;;2.40;99.90;;;;;;4896390;29;20056;-88
2022/03/31 04:25:31;;;;;;;9.57;6.32;;;2.40;99.90;;;;;;4879180;29;20051;-88
2022/03/31 04:27:57;;;;;;;11.13;6.80;;;2.40;99.90;;;;;;4880227;29;20044;-87
2022/03/31 04:30:22;;;;;;;12.60;7.28;;;2.40;99.90;;;;;;4880083;29;20450;-88
2022/03/31 04:32:49;;;;;;;9.63;6.57;;;2.40;99.90;;;;;;4864395;29;20424;-86
2022/03/31 04:35:15;;;;;;;16.00;8.38;;;2.30;99.90;;;;;;4895857;29;20048;-87
2022/03/31 04:37:41;;;;;;;14.45;8.38;;;2.40;99.90;;;;;;4896539;29;20503;-87
2022/03/31 04:40:08;;;;;;;15.68;8.30;;;2.30;99.90;;;;;;4896391;29;20112;-87
2022/03/31 04:42:34;;;;;;;15.95;9.05;;;2.40;99.90;;;;;;4879290;29;20067;-87
2022/03/31 04:45:02;;;;;;;15.10;9.45;;;2.40;99.90;;;;;;4878877;29;20063;-88
2022/03/31 04:47:28;;;;;;;16.52;9.57;;;2.40;99.90;;;;;;4879667;29;20048;-88
2022/03/31 04:49:54;;;;;;;16.83;9.35;;;2.40;99.90;;;;;;4896256;29;20487;-87
2022/03/31 04:52:20;;;;;;;18.45;10.48;;;2.40;99.90;;;;;;4879167;29;20049;-87
2022/03/31 04:54:46;;;;;;;16.70;10.05;;;2.40;99.90;;;;;;4878966;29;20049;-87
2022/03/31 04:57:18;;;;;;;15.15;9.65;;;2.40;99.90;;;;;;4879502;29;20055;-88
2022/03/31 04:59:44;;;;;;;12.05;9.15;;;2.40;99.90;;;;;;4865098;29;20041;-87
2022/03/31 05:02:13;;;;;;;17.67;10.95;;;2.70;99.90;;;;;;4880999;29;20068;-87
2022/03/31 05:04:39;;;;;;;19.45;11.57;;;2.30;99.90;;;;;;4894938;29;20048;-87
2022/03/31 05:07:04;;;;;;;17.42;11.88;;;2.40;99.90;;;;;;4880775;29;20058;-87
2022/03/31 05:09:30;;;;;;;15.27;10.20;;;2.30;99.90;;;;;;4897232;29;20052;-87
2022/03/31 05:11:55;;;;;;;18.50;12.15;;;2.30;99.90;;;;;;4897701;29;20060;-87
2022/03/31 05:14:21;;;;;;;20.20;12.32;;;2.30;99.90;;;;;;4897642;29;20051;-86
2022/03/31 05:16:47;;;;;;;18.02;12.38;;;2.30;99.90;;;;;;4895757;29;20124;-87
2022/03/31 05:19:12;;;;;;;25.13;13.18;;;2.30;99.90;;;;;;4895690;29;20045;-87
2022/03/31 05:21:38;;;;;;;20.73;12.40;;;2.60;99.90;;;;;;4878505;29;20112;-88
2022/03/31 05:24:05;;;;;;;16.60;11.15;;;2.30;99.90;;;;;;4878619;29;20066;-87
2022/03/31 05:26:31;;;;;;;20.02;11.23;;;2.30;99.90;;;;;;4879274;29;20061;-86
2022/03/31 05:28:56;;;;;;;22.65;12.80;;;2.30;99.90;;;;;;4880715;29;20064;-87
2022/03/31 05:31:22;;;;;;;23.73;12.88;;;2.30;99.90;;;;;;4880648;29;20065;-87
2022/03/31 05:33:48;;;;;;;20.67;10.85;;;2.30;99.90;;;;;;4881163;29;20395;-87
2022/03/31 05:36:13;;;;;;;14.07;9.30;;;2.30;99.90;;;;;;4897492;29;20312;-87
2022/03/31 05:38:39;;;;;;;13.05;8.60;;;2.30;99.90;;;;;;4897541;29;20475;-86
2022/03/31 05:41:05;;;;;;;12.50;8.60;;;2.40;99.90;;;;;;4880729;29;20036;-87
2022/03/31 05:43:31;;;;;;;14.02;9.45;;;2.40;99.90;;;;;;4880449;29;20479;-87
2022/03/31 05:45:56;;;;;;;12.68;8.13;;;2.40;99.90;;;;;;4880739;29;20112;-87
2022/03/31 05:48:22;;;;;;;11.40;7.70;;;2.40;99.90;;;;;;4897687;29;20387;-86
2022/03/31 05:50:48;;;;;;;12.90;8.43;;;2.40;99.90;;;;;;4880414;29;20490;-87
2022/03/31 05:53:13;;;;;;;11.32;7.85;;;2.40;99.90;;;;;;4897402;29;20075;-86
2022/03/31 05:55:40;;;;;;;12.57;8.23;;;2.40;99.90;;;;;;4880615;29;20056;-86
2022/03/31 05:58:08;;;;;;;10.52;7.53;;;2.40;99.90;;;;;;4880929;29;20052;-86
2022/03/31 06:00:33;;;;;;;11.15;7.90;;;2.50;99.90;;;;;;4897525;29;20390;-87
2022/03/31 06:02:59;;;;;;;12.13;7.40;;;2.50;99.90;;;;;;4880866;29;20048;-86
2022/03/31 06:05:25;;;;;;;12.60;7.10;;;2.50;99.90;;;;;;4880457;29;20036;-87
2022/03/31 06:07:52;;;;;;;17.10;7.50;;;2.50;99.90;;;;;;4880742;29;20379;-87
2022/03/31 06:10:19;;;;;;;10.60;6.53;;;2.50;99.90;;;;;;4897114;29;20041;-87
2022/03/31 06:12:45;;;;;;;9.80;6.80;;;2.50;99.90;;;;;;4897370;29;20416;-87
2022/03/31 06:15:11;;;;;;;9.25;6.70;;;2.80;99.90;;;;;;4880033;29;20056;-87
2022/03/31 06:17:40;;;;;;;10.15;7.20;;;2.50;99.90;;;;;;4901010;29;20097;-87
2022/03/31 06:20:08;;;;;;;7.20;6.18;;;2.50;99.90;;;;;;4884402;29;20057;-87
2022/03/31 06:22:34;;;;;;;6.70;5.75;;;2.50;99.90;;;;;;4884201;29;20438;-85
2022/03/31 06:25:00;;;;;;;9.45;6.38;;;2.50;99.90;;;;;;4884259;29;20114;-87
2022/03/31 06:27:27;;;;;;;8.82;6.82;;;2.70;99.90;;;;;;4878302;29;20112;-86
2022/03/31 06:29:53;;;;;;;9.68;6.72;;;2.60;99.90;;;;;;4894205;29;20052;-87
2022/03/31 06:32:19;;;;;;;11.18;7.50;;;2.70;99.90;;;;;;4917447;29;20048;-87
2022/03/31 06:34:45;;;;;;;8.80;6.72;;;2.80;99.90;;;;;;4921702;29;20092;-87
2022/03/31 06:37:11;;;;;;;9.65;6.93;;;2.90;99.90;;;;;;4887257;29;20059;-87
2022/03/31 06:39:37;;;;;;;8.73;6.85;;;2.90;99.90;;;;;;4884865;29;20048;-87
2022/03/31 06:42:04;;;;;;;10.23;7.07;;;2.90;99.90;;;;;;4883933;29;20055;-84
2022/03/31 06:44:30;;;;;;;9.55;6.78;;;2.90;99.90;;;;;;4884191;29;20079;-84
2022/03/31 06:46:56;;;;;;;13.20;8.23;;;2.80;99.90;;;;;;4884261;29;20041;-84
2022/03/31 06:49:23;;;;;;;10.98;7.45;;;2.90;99.90;;;;;;4884248;29;20052;-84
2022/03/31 06:51:50;;;;;;;10.27;7.57;;;2.90;99.90;;;;;;4883158;29;20139;-85
2022/03/31 06:54:15;;;;;;;9.90;7.40;;;2.90;99.90;;;;;;4883642;29;20056;-85
2022/03/31 06:56:41;;;;;;;10.70;7.90;;;2.90;99.90;;;;;;4883315;29;20049;-85
2022/03/31 06:59:07;;;;;;;13.40;8.40;;;2.90;99.90;;;;;;4900377;29;20049;-85
2022/03/31 07:01:32;;;;;;;10.27;7.47;;;3.00;99.90;;;;;;4867989;29;20080;-84
2022/03/31 07:03:58;;;;;;;11.05;8.15;;;3.00;99.90;;;;;;4900233;29;20049;-85
2022/03/31 07:06:24;;;;;;;9.00;7.30;;;3.10;99.90;;;;;;4900097;29;20039;-85
2022/03/31 07:08:51;;;;;;;10.45;7.68;;;3.10;99.90;;;;;;4867858;29;20060;-86
2022/03/31 07:11:17;;;;;;;8.45;7.30;;;3.10;99.90;;;;;;4899706;29;20040;-85
2022/03/31 07:13:47;;;;;;;9.77;7.53;;;3.30;99.90;;;;;;4900199;29;20110;-85
2022/03/31 07:16:14;;;;;;;9.52;7.72;;;3.00;99.90;;;;;;4900142;29;20439;-83
2022/03/31 07:18:40;;;;;;;8.20;7.15;;;3.00;99.90;;;;;;4883089;29;20049;-84
2022/03/31 07:21:06;;;;;;;11.15;8.10;;;3.00;99.90;;;;;;4883091;29;20066;-83
2022/03/31 07:23:31;;;;;;;8.68;7.50;;;3.10;99.90;;;;;;4899716;29;20041;-84
2022/03/31 07:25:57;;;;;;;8.93;7.57;;;3.10;99.90;;;;;;4899492;29;20076;-85
2022/03/31 07:28:23;;;;;;;12.60;9.15;;;3.20;99.90;;;;;;4867242;29;20379;-85
2022/03/31 07:30:50;;;;;;;12.60;9.02;;;3.20;99.90;;;;;;4882717;29;20048;-83
2022/03/31 07:33:18;;;;;;;9.73;8.25;;;3.20;99.90;;;;;;4883365;29;20048;-85
2022/03/31 07:35:44;;;;;;;11.02;8.63;;;3.20;99.90;;;;;;4883128;29;20052;-85
2022/03/31 07:38:10;;;;;;;8.45;7.15;;;3.50;99.90;;;;;;4899469;29;20135;-83
2022/03/31 07:40:38;;;;;;;8.48;7.47;;;3.30;99.90;;;;;;4899446;29;20176;-85
2022/03/31 07:43:05;;;;;;;9.80;7.75;;;3.40;99.90;;;;;;4882480;29;20052;-85
2022/03/31 07:45:34;;;;;;;11.15;8.50;;;3.30;99.90;;;;;;4882744;29;20047;-85
2022/03/31 07:48:01;;;;;;;11.27;8.30;;;3.30;99.90;;;;;;4899360;29;20048;-86
2022/03/31 07:50:27;;;;;;;11.15;8.55;;;3.20;99.90;;;;;;4899299;29;20108;-85
2022/03/31 07:52:53;;;;;;;14.07;9.40;;;3.20;99.90;;;;;;4882577;29;20045;-85
2022/03/31 07:55:22;;;;;;;10.82;9.05;;;3.10;99.90;;;;;;4899065;29;20049;-85
2022/03/31 07:57:49;;;;;;;12.55;9.00;;;3.10;99.90;;;;;;4899478;29;20104;-85
2022/03/31 08:00:16;;;;;;;14.82;10.07;;;3.10;99.90;;;;;;4899255;29;20058;-85
2022/03/31 08:02:44;;;;;;;12.63;9.82;;;3.00;99.90;;;;;;4899193;29;20044;-87
2022/03/31 08:05:11;;;;;;;14.10;9.43;;;3.00;99.90;;;;;;4882192;29;20368;-86
2022/03/31 08:07:37;;;;;;;13.30;10.00;;;3.10;99.90;;;;;;4899030;29;20510;-85
2022/03/31 08:10:06;;;;;;;15.07;10.00;;;3.10;99.90;;;;;;4898842;29;20132;-86
2022/03/31 08:12:34;;;;;;;9.90;8.60;;;3.10;99.90;;;;;;4898983;29;20103;-85
2022/03/31 08:15:00;;;;;;;16.08;10.98;;;3.10;99.90;;;;;;4898978;29;20040;-87
2022/03/31 08:17:26;;;;;;;14.13;10.52;;;3.20;99.90;;;;;;4881864;29;20060;-86
2022/03/31 08:19:51;;;;;;;11.57;9.40;;;3.20;99.90;;;;;;4898815;29;20048;-86
2022/03/31 08:22:17;;;;;;;12.77;9.93;;;3.20;99.90;;;;;;4866389;29;20064;-86
2022/03/31 08:24:43;;;;;;;16.23;11.43;;;3.20;99.90;;;;;;4898415;29;20132;-86
2022/03/31 08:27:09;;;;;;;14.27;10.27;;;3.20;99.90;;;;;;4898797;29;20127;-86
2022/03/31 08:29:35;;;;;;;14.43;11.02;;;3.20;99.90;;;;;;4882160;29;20510;-86
2022/03/31 08:32:01;;;;;;;14.93;10.65;;;3.20;99.90;;;;;;4898599;29;20033;-85
2022/03/31 08:34:27;;;;;;;14.60;11.23;;;3.20;99.90;;;;;;4898459;29;20040;-84
2022/03/31 08:36:53;;;;;;;17.35;11.88;;;3.20;99.90;;;;;;4866595;29;20044;-86
2022/03/31 08:39:19;;;;;;;13.70;11.13;;;3.20;99.90;;;;;;4882018;29;20395;-86
2022/03/31 08:41:45;;;;;;;13.25;10.52;;;3.30;99.90;;;;;;4881859;29;20044;-87
2022/03/31 08:44:13;;;;;;;17.77;11.60;;;3.20;99.90;;;;;;4866088;29;20048;-87
2022/03/31 08:46:39;;;;;;;14.68;10.90;;;3.20;99.90;;;;;;4898504;29;20056;-87
2022/03/31 08:49:08;;;;;;;15.73;11.10;;;3.20;99.90;;;;;;4882145;29;20048;-87
2022/03/31 08:51:34;;;;;;;14.60;11.27;;;3.20;99.90;;;;;;4881691;29;20513;-87
2022/03/31 08:54:00;;;;;;;15.57;11.38;;;3.10;99.90;;;;;;4881541;29;20451;-87
2022/03/31 08:56:26;;;;;;;12.68;9.50;;;3.10;99.90;;;;;;4881293;29;20495;-86
2022/03/31 08:58:51;;;;;;;17.17;10.48;;;3.10;99.90;;;;;;4881449;29;20052;-89
2022/03/31 09:01:17;;;;;;;13.88;10.35;;;3.10;99.90;;;;;;4866095;29;20088;-87
2022/03/31 09:03:44;;;;;;;13.93;10.18;;;3.00;99.90;;;;;;4897919;29;20048;-87
2022/03/31 09:06:28;;;;;;;14.82;10.98;;;3.00;99.90;;;;;;4881175;29;20044;-87
2022/03/31 09:09:00;;;;;;;15.38;10.98;;;3.00;99.90;;;;;;4865775;29;20056;-88
2022/03/31 09:11:37;;;;;;;14.30;10.20;;;3.00;99.90;;;;;;4898471;29;20044;-88
2022/03/31 09:14:04;;;;;;;15.25;10.90;;;3.00;99.90;;;;;;4897921;29;20048;-88
2022/03/31 09:16:40;;;;;;;14.95;9.50;;;3.00;99.90;;;;;;4897800;29;20047;-86
2022/03/31 09:19:11;;;;;;;13.57;10.48;;;3.00;99.90;;;;;;4897823;29;20123;-88
2022/03/31 09:21:54;;;;;;;16.40;11.18;;;3.00;99.90;;;;;;4880925;29;20432;-88
2022/03/31 09:24:24;;;;;;;13.40;9.80;;;3.00;99.90;;;;;;4865921;29;20080;-87
2022/03/31 09:26:50;;;;;;;13.60;10.33;;;3.00;99.90;;;;;;4883900;29;20475;-87
2022/03/31 09:29:20;;;;;;;14.73;10.65;;;3.00;99.90;;;;;;4898012;29;20048;-89
2022/03/31 09:31:51;;;;;;;13.30;9.63;;;3.10;99.90;;;;;;4881284;29;20072;-86
2022/03/31 09:34:17;;;;;;;;;;;3.10;99.90;;;;;;4867263;29;20542;-88
2022/03/31 09:36:51;;;;;;;13.80;9.35;;;3.20;99.90;;;;;;4882074;29;20018;-86
2022/03/31 09:39:18;;;;;;;13.57;9.95;;;3.20;99.90;;;;;;4865725;29;20428;-86
2022/03/31 09:41:48;;;;;;;14.02;10.43;;;3.20;99.90;;;;;;4881040;29;20041;-86
2022/03/31 09:44:15;;;;;;;13.63;10.13;;;3.30;99.90;;;;;;4881112;29;20052;-87
2022/03/31 09:46:42;;;;;;;12.15;9.65;;;3.40;99.90;;;;;;4880716;29;20056;-86
2022/03/31 09:49:12;;;;;;;12.35;9.73;;;3.40;99.90;;;;;;4897620;29;20402;-87
2022/03/31 09:51:39;;;;;;;11.50;9.23;;;3.50;99.90;;;;;;4884938;29;20041;-86
2022/03/31 09:54:04;;;;;;;12.07;8.82;;;3.60;99.90;;;;;;4887125;29;20076;-87
2022/03/31 09:56:38;;;;;;;13.88;8.60;;;3.60;99.90;;;;;;4886814;29;20052;-86
2022/03/31 09:59:05;;;;;;;11.45;8.48;;;3.60;99.90;;;;;;4887066;29;20040;-86
2022/03/31 10:01:31;;;;;;;11.05;8.52;;;3.60;99.90;;;;;;4886948;29;20057;-84
2022/03/31 10:03:57;;;;;;;13.82;8.35;;;3.60;99.90;;;;;;4887365;29;20132;-85
2022/03/31 10:06:24;;;;;;;8.95;7.15;;;3.60;99.90;;;;;;4904062;29;20084;-86
2022/03/31 10:08:51;;;;;;;9.90;7.32;;;3.60;99.90;;;;;;4871410;29;20071;-86
2022/03/31 10:11:23;;;;;;;11.45;7.30;;;3.80;99.90;;;;;;4889636;29;20052;-86
2022/03/31 10:13:52;;;;;;;9.07;7.28;;;3.70;99.90;;;;;;4888231;29;20406;-85
2022/03/31 10:16:24;;;;;;;9.40;6.53;;;3.70;99.90;;;;;;4903503;29;20045;-85
2022/03/31 10:18:49;;;;;;;6.70;5.72;;;3.70;99.90;;;;;;4903731;29;20048;-85
2022/03/31 10:21:30;;;;;;;6.25;4.85;;;3.60;99.90;;;;;;4886613;29;20079;-86
2022/03/31 10:26:40;;;;;;;5.53;4.25;;;3.40;99.90;;;;;;4886562;29;20059;-84
2022/03/31 10:29:15;;;;;;;4.45;3.90;;;3.50;99.90;;;;;;4886993;29;20059;-84
2022/03/31 10:31:43;;;;;;;4.63;3.65;;;3.50;99.90;;;;;;4886943;29;20059;-85
2022/03/31 10:34:10;;;;;;;4.47;3.50;;;3.40;99.90;;;;;;4886860;29;20398;-86
2022/03/31 10:36:45;;;;;;;4.35;3.40;;;3.40;99.90;;;;;;4903616;29;20052;-85
2022/03/31 10:39:22;;;;;;;3.72;3.05;;;3.40;99.90;;;;;;4870992;29;20498;-85
2022/03/31 10:42:00;;;;;;;3.90;3.40;;;3.30;99.90;;;;;;4886733;29;20052;-85
2022/03/31 10:44:26;;;;;;;4.35;3.40;;;3.20;99.90;;;;;;4903248;29;20045;-85
2022/03/31 10:47:04;;;;;;;3.83;3.03;;;3.20;99.90;;;;;;4903760;29;20040;-85
2022/03/31 10:49:30;;;;;;;4.07;3.50;;;3.20;99.90;;;;;;4886687;29;20052;-84
2022/03/31 10:51:57;;;;;;;3.88;2.78;;;3.20;99.90;;;;;;4903020;29;20173;-85
2022/03/31 10:54:33;;;;;;;4.63;3.08;;;3.10;99.90;;;;;;4903602;29;20123;-85
2022/03/31 10:57:17;;;;;;;3.90;3.22;;;3.20;99.90;;;;;;4886387;29;20052;-85
2022/03/31 10:59:48;;;;;;;3.45;2.70;;;3.10;99.90;;;;;;4871110;29;20049;-85
2022/03/31 11:02:18;;;;;;;3.38;3.08;;;3.10;99.90;;;;;;4884423;29;20100;-86
2022/03/31 11:04:58;;;;;;;3.55;3.10;;;3.10;99.90;;;;;;4883772;29;20083;-86
2022/03/31 11:07:25;;;;;;;4.47;3.53;;;3.00;99.90;;;;;;4900194;29;20056;-86
2022/03/31 11:10:03;;;;;;;4.47;3.38;;;3.00;99.90;;;;;;4883403;29;20059;-85
2022/03/31 11:12:29;;;;;;;4.53;3.42;;;3.00;99.90;;;;;;4883363;29;20096;-85
2022/03/31 11:15:08;;;;;;;4.65;3.55;;;2.90;99.90;;;;;;4882525;29;20048;-85
2022/03/31 11:17:35;;;;;;;3.90;3.30;;;2.90;99.90;;;;;;4867897;29;20048;-85
2022/03/31 11:20:13;;;;;;;5.13;3.90;;;2.80;99.90;;;;;;4883105;29;20087;-85
2022/03/31 11:22:44;;;;;;;4.25;3.35;;;2.80;99.90;;;;;;4867580;29;20060;-85
2022/03/31 11:25:11;;;;;;;4.57;3.72;;;2.70;99.90;;;;;;4883008;29;20096;-85
2022/03/31 11:27:39;;;;;;;5.15;3.65;;;2.70;99.90;;;;;;4899509;29;20047;-86
2022/03/31 11:30:06;;;;;;;4.53;3.63;;;2.70;99.90;;;;;;4883173;29;20053;-85
2022/03/31 11:32:34;;;;;;;5.72;3.80;;;2.70;99.90;;;;;;4896339;29;20118;-85
2022/03/31 11:35:00;;;;;;;4.45;3.75;;;2.60;99.90;;;;;;4899592;29;20036;-86
2022/03/31 11:37:26;;;;;;;6.88;3.28;;;2.60;99.90;;;;;;4882969;29;20048;-86
2022/03/31 11:39:52;;;;;;;4.80;3.67;;;2.50;99.90;;;;;;4882893;29;20394;-86
2022/03/31 11:42:19;;;;;;;3.83;3.25;;;2.50;99.90;;;;;;4895260;29;20467;-86
2022/03/31 11:44:44;;;;;;;5.20;3.75;;;2.50;99.90;;;;;;4867335;29;20299;-87
2022/03/31 11:47:21;;;;;;;4.40;3.70;;;2.30;99.90;;;;;;4896684;29;20475;-87
2022/03/31 11:49:58;;;;;;;4.43;3.40;;;2.30;99.90;;;;;;4877936;29;20048;-88
2022/03/31 11:52:31;;;;;;;4.40;3.65;;;2.20;99.90;;;;;;4881003;29;20096;-88
2022/03/31 11:55:00;;;;;;;4.97;3.42;;;2.40;99.90;;;;;;4881755;29;20383;-87
2022/03/31 11:57:28;;;;;;;5.03;3.60;;;2.30;99.90;;;;;;4881636;29;20122;-87
2022/03/31 11:59:55;;;;;;;4.35;3.72;;;2.00;99.90;;;;;;4898544;29;20048;-87
2022/03/31 12:02:21;;;;;;;4.85;3.78;;;1.90;99.90;;;;;;4898711;29;20040;-88
2022/03/31 12:04:48;;;;;;;8.55;4.10;;;1.90;99.90;;;;;;4866449;29;20467;-89
2022/03/31 12:07:16;;;;;;;5.18;4.25;;;1.80;99.90;;;;;;4882031;29;20115;-89
2022/03/31 12:09:42;;;;;;;7.25;3.95;;;1.80;99.90;;;;;;4881734;29;20596;-87
2022/03/31 12:12:12;;;;;;;4.18;3.35;;;1.80;99.90;;;;;;4881900;29;20558;-89
2022/03/31 12:14:38;;;;;;;5.72;3.95;;;1.80;99.90;;;;;;4881776;29;20147;-89
2022/03/31 12:17:06;;;;;;;6.13;3.67;;;1.70;99.90;;;;;;4879631;29;20356;-89
2022/03/31 12:19:42;;;;;;;4.47;3.72;;;1.70;99.90;;;;;;4884409;29;20055;-89
2022/03/31 12:22:09;;;;;;;4.85;3.88;;;1.80;99.90;;;;;;4908443;29;20391;-90
2022/03/31 12:24:49;;;;;;;5.82;4.05;;;1.80;99.90;;;;;;4908960;29;20394;-89
2022/03/31 12:27:17;;;;;;;6.82;4.03;;;1.90;99.90;;;;;;4888023;29;20052;-89
2022/03/31 12:29:43;;;;;;;6.45;4.60;;;1.90;99.90;;;;;;4890770;29;20047;-91
2022/03/31 12:32:13;;;;;;;4.43;4.03;;;1.90;99.90;;;;;;4892202;29;20055;-89
2022/03/31 12:35:00;;;;;;;6.70;5.07;;;1.90;99.90;;;;;;4905674;29;20044;-89
2022/03/31 12:37:31;;;;;;;5.63;4.55;;;2.00;99.90;;;;;;4870295;29;20043;-88
2022/03/31 12:39:58;;;;;;;5.65;4.53;;;2.00;99.90;;;;;;4886908;29;20398;-86
2022/03/31 12:42:24;;;;;;;6.90;5.55;;;2.00;99.90;;;;;;4898398;29;20051;-88
2022/03/31 12:44:50;;;;;;;8.35;5.70;;;2.00;99.90;;;;;;4898426;29;20044;-88
2022/03/31 12:47:25;;;;;;;7.00;5.30;;;2.00;99.90;;;;;;4881784;29;20049;-87
2022/03/31 12:49:52;;;;;;;7.65;5.78;;;2.00;99.90;;;;;;4881685;29;20198;-87
2022/03/31 12:52:22;;;;;;;7.70;6.00;;;2.10;99.90;;;;;;4866268;29;20096;-86
2022/03/31 12:54:51;;;;;;;9.93;6.78;;;2.20;99.90;;;;;;4898108;29;20044;-87
2022/03/31 12:57:25;;;;;;;8.07;6.45;;;2.20;99.90;;;;;;4881812;29;20048;-86